急遽、フライト合宿?!

LUXURY FLIGHT

03-6423-7371

羽田本店:東京都大田区羽田5-11-1
営業時間:10:00~20:00
定休日:毎週 月曜日
セントレア店:愛知県常滑市セントレア1-1
営業時間:10:00~20:00 年中無休

lv

急遽、フライト合宿?!

STAFF BLOG

2019/07/28 急遽、フライト合宿?!

 

セントレアより、こんちゃっっっす!!

 

さてさて、本日のセントレアのMETARは…

RJGG 280730Z 17010KT 9999 FEW030 30/25 Q1011 NOSIGシンプルでいいですねーーーー!!!!

 

img_2451

先日、大阪からお越しのKさま親子!

今回ご体験頂いたのは、中2のご子息さま。

 

この日が人生初飛行!!

ドキドキわくわくが高まる中、テイクオーーーフッ!!

 

一度オートパイロットを入れて、計器の読み方をひと通り学んだ後、

いざ、マニュアル操縦スタート!

 

あれ?あれれ〜〜〜??おかしいなー

まだ、オートパイロット入って無いのにな〜??

 

と、勘違いしてしまうくらいに、

初心者にはなかなかどうして非常に難しい、水平直線飛行をピターーーッとクリア!!

 

最後もセンターラインど真ん中に、スムーズなランディング〜!!

ナイスを通り越して、ワンダフォーーーな初着陸に、お母様とスタッフ一同、拍手喝采でございました!!

 

体験終了後、たまたま空席の出ていた翌日も急遽ご予約!!

まさかのフライト合宿決定です!!!(笑)

 

さて、迎えた2日目は、難易度を上げ、夕刻フライトに挑戦!!

昼間と比べ、視覚情報が減り、錯覚も起こしやすい状況に、はじめは苦戦。。。

 

しかし、某海外製掃除機の如く、コツの吸引力が違います!!

そのべっぴんなフライトに、お母様・スタッフも惚れ惚れ!

最後もやはり、某A○B48メンバーが嫉妬するくらい、センターど真ん中を死守してランディング!!!

 

 

…もう、さすがです!

 

img_2452

 

 

とはいえ、航空の学びは教科書でいえば、1ページ目。まだまだ始まったばかりです!

更なる成長を目指してのご来店を、スタッフ一同、心よりお待ち致しております。

 

お子様の操縦体験をご検討中の大人の皆さま、

お子様の好奇心拡大・人間的成長のヒントに、ぜひとも弊社の操縦体験をご利用頂きければ、幸いです。

(なお、弊社は操縦体験の対象年齢を8歳以上とさせていただいておりますが、8歳未満のお子様で体験希望の場合は、是非ご相談ください!)

 

この度は、連日ご来店いただきまして、ありがとうございました!

またのご来店をスタッフ一同心よりお待ち致しております!!

 

「感謝」

 

 

 

 

 

 

TOP